Time;durP1;ratioP1;P1;durP2;ratioP2;P2;SDS_P1;SDS_P2;PMS_P1;PMS_P2;Temp;Humidity;BMP_temperature;BMP_pressure;BME280_temperature;BME280_humidity;BME280_pressure;Samples;Min_cycle;Max_cycle;Signal;HPM_P1;HPM_P2
2023/01/14 00:02:21;;;;;;;12.98;2.80;;;7.50;99.90;;;;;;5074083;28;20044;-47
2023/01/14 00:04:47;;;;;;;14.77;3.40;;;7.40;99.90;;;;;;5072180;28;20028;-50
2023/01/14 00:07:13;;;;;;;13.90;2.47;;;7.50;99.90;;;;;;5072520;28;21310;-50
2023/01/14 00:09:38;;;;;;;18.63;2.95;;;7.40;99.90;;;;;;5068551;28;20115;-50
2023/01/14 00:12:04;;;;;;;12.98;2.78;;;7.50;99.90;;;;;;5081685;28;20029;-48
2023/01/14 00:14:30;;;;;;;20.63;3.20;;;7.50;99.90;;;;;;5073485;28;20036;-49
2023/01/14 00:16:58;;;;;;;12.25;2.50;;;7.50;99.90;;;;;;5070014;28;20036;-51
2023/01/14 00:19:24;;;;;;;17.02;2.75;;;7.40;99.90;;;;;;5069711;28;20037;-49
2023/01/14 00:21:52;;;;;;;18.08;2.90;;;7.40;99.90;;;;;;5081114;28;20086;-49
2023/01/14 00:24:20;;;;;;;17.45;3.00;;;7.30;99.90;;;;;;5075513;28;20525;-48
2023/01/14 00:26:49;;;;;;;14.68;2.85;;;7.30;99.90;;;;;;5074286;28;20048;-49
2023/01/14 00:29:17;;;;;;;17.55;3.17;;;7.30;99.90;;;;;;5074214;28;20036;-48
2023/01/14 00:31:43;;;;;;;13.48;2.67;;;7.30;99.90;;;;;;5069542;28;20047;-47
2023/01/14 00:34:10;;;;;;;18.42;2.53;;;7.30;99.90;;;;;;5074929;28;20118;-50
2023/01/14 00:36:36;;;;;;;14.38;2.15;;;7.20;99.90;;;;;;5074634;28;20484;-51
2023/01/14 00:39:02;;;;;;;17.02;3.78;;;7.30;99.90;;;;;;5083044;28;20044;-50
2023/01/14 00:41:28;;;;;;;21.42;3.22;;;7.20;99.90;;;;;;5069639;28;20040;-48
2023/01/14 00:43:56;;;;;;;21.75;2.80;;;7.10;99.90;;;;;;5071187;28;20127;-49
2023/01/14 00:46:31;;;;;;;18.35;2.85;;;7.20;99.90;;;;;;5087384;28;20036;-49
2023/01/14 00:48:58;;;;;;;;;;;7.20;99.90;;;;;;5069361;28;20032;-52
2023/01/14 00:51:24;;;;;;;10.27;2.10;;;7.10;99.90;;;;;;5081928;28;19927;-48
2023/01/14 00:53:50;;;;;;;16.58;2.67;;;7.10;99.90;;;;;;5072259;28;20433;-50
2023/01/14 00:56:19;;;;;;;14.68;3.00;;;7.10;99.90;;;;;;5073063;28;20055;-52
2023/01/14 00:58:45;;;;;;;21.52;5.30;;;7.20;99.90;;;;;;5074438;28;20036;-49
2023/01/14 01:01:11;;;;;;;17.35;2.97;;;7.20;99.90;;;;;;5072000;28;20045;-47
2023/01/14 01:03:39;;;;;;;25.23;3.47;;;7.30;99.90;;;;;;5073051;28;20043;-47
2023/01/14 01:06:05;;;;;;;22.63;3.63;;;7.30;99.90;;;;;;5072895;28;20507;-49
2023/01/14 01:08:32;;;;;;;18.58;3.20;;;7.30;99.90;;;;;;5072880;28;20123;-51
2023/01/14 01:10:58;;;;;;;25.65;3.03;;;7.40;99.90;;;;;;5072982;28;20045;-47
2023/01/14 01:13:25;;;;;;;17.40;3.13;;;7.30;99.90;;;;;;5072307;28;20048;-47
2023/01/14 01:15:52;;;;;;;17.95;2.67;;;7.30;99.90;;;;;;5073111;28;20035;-47
2023/01/14 01:18:18;;;;;;;18.40;3.10;;;7.30;99.90;;;;;;5071813;28;20052;-48
2023/01/14 01:20:44;;;;;;;17.67;2.70;;;7.40;99.90;;;;;;5077696;28;20040;-47
2023/01/14 01:23:12;;;;;;;21.42;3.35;;;7.40;99.90;;;;;;5072642;28;20039;-48
2023/01/14 01:25:38;;;;;;;22.05;2.83;;;7.50;99.90;;;;;;5078660;28;20506;-49
2023/01/14 01:28:05;;;;;;;21.88;3.50;;;7.40;99.90;;;;;;5072980;28;20040;-51
2023/01/14 01:30:31;;;;;;;17.67;2.53;;;7.40;99.90;;;;;;5072845;28;20040;-48
2023/01/14 01:32:57;;;;;;;20.70;3.28;;;7.40;99.90;;;;;;5072374;28;20055;-50
2023/01/14 01:35:23;;;;;;;26.10;3.67;;;7.40;99.90;;;;;;5072546;28;20123;-46
2023/01/14 01:37:51;;;;;;;24.45;3.17;;;7.40;99.90;;;;;;5072491;28;20041;-49
2023/01/14 01:40:17;;;;;;;18.77;2.85;;;7.40;99.90;;;;;;5086034;28;20394;-46
2023/01/14 01:42:55;;;;;;;16.02;2.83;;;7.40;99.90;;;;;;5072954;28;20093;-49
2023/01/14 01:45:27;;;;;;;17.13;3.30;;;7.40;99.90;;;;;;5084422;28;20052;-48
2023/01/14 01:48:04;;;;;;;16.08;2.67;;;7.50;99.90;;;;;;5076807;28;20044;-46
2023/01/14 01:50:30;;;;;;;15.05;2.55;;;7.40;99.90;;;;;;5073549;28;20115;-48
2023/01/14 01:52:57;;;;;;;15.13;2.53;;;7.50;99.90;;;;;;5086706;28;20051;-46
2023/01/14 01:55:23;;;;;;;13.98;2.38;;;7.50;99.90;;;;;;5074000;28;20044;-50
2023/01/14 01:57:55;;;;;;;19.08;3.00;;;7.50;99.90;;;;;;5083132;28;20124;-47
2023/01/14 02:00:23;;;;;;;21.50;3.00;;;7.60;99.90;;;;;;5083973;28;20036;-48
2023/01/14 02:02:52;;;;;;;17.80;2.60;;;7.60;99.90;;;;;;5071587;28;20035;-49
2023/01/14 02:05:18;;;;;;;19.55;2.55;;;7.40;99.90;;;;;;5076552;28;20051;-49
2023/01/14 02:07:44;;;;;;;18.27;2.78;;;7.50;99.90;;;;;;5076112;28;20028;-49
2023/01/14 02:10:11;;;;;;;23.85;3.22;;;7.20;99.90;;;;;;5073966;28;20028;-49
2023/01/14 02:12:45;;;;;;;21.10;3.42;;;7.20;99.90;;;;;;5079904;28;20036;-50
2023/01/14 02:15:29;;;;;;;;;;;7.10;99.90;;;;;;5073067;28;20391;-48
2023/01/14 02:18:27;;;;;;;20.30;3.13;;;6.90;99.90;;;;;;5076282;28;19916;-49
2023/01/14 02:21:10;;;;;;;17.45;2.55;;;6.80;99.90;;;;;;5082113;28;20451;-50
2023/01/14 02:24:03;;;;;;;23.48;3.53;;;6.70;99.90;;;;;;5070097;28;20227;-47
2023/01/14 02:26:47;;;;;;;21.33;3.35;;;6.60;99.90;;;;;;5074843;28;20036;-49
2023/01/14 02:29:37;;;;;;;15.35;3.05;;;6.50;99.90;;;;;;5075499;28;20032;-49
2023/01/14 02:32:13;;;;;;;18.85;3.03;;;6.50;99.90;;;;;;5071349;28;20090;-49
2023/01/14 02:35:00;;;;;;;17.73;2.63;;;6.40;99.90;;;;;;5071309;28;20036;-48
2023/01/14 02:37:28;;;;;;;15.48;2.53;;;6.30;99.90;;;;;;5072258;28;20047;-51
2023/01/14 02:40:27;;;;;;;17.77;2.50;;;6.20;99.90;;;;;;5077074;28;20460;-47
2023/01/14 02:45:58;;;;;;;15.98;2.45;;;6.00;99.90;;;;;;5078041;28;20043;-49
2023/01/14 02:48:25;;;;;;;17.50;2.30;;;5.90;99.90;;;;;;5074411;28;20520;-48
2023/01/14 02:50:51;;;;;;;16.05;3.22;;;5.80;99.90;;;;;;5081874;28;20388;-49
2023/01/14 02:53:19;;;;;;;12.73;2.28;;;5.80;99.90;;;;;;5072681;28;20491;-49
2023/01/14 02:55:45;;;;;;;14.88;2.20;;;5.70;99.90;;;;;;5070969;28;20040;-51
2023/01/14 02:58:50;;;;;;;25.52;3.40;;;5.80;99.90;;;;;;5071119;28;20044;-49
2023/01/14 03:01:39;;;;;;;14.90;2.30;;;5.60;99.90;;;;;;5069703;28;20432;-48
2023/01/14 03:04:30;;;;;;;16.02;2.17;;;5.50;99.90;;;;;;5070740;28;20066;-50
2023/01/14 03:07:09;;;;;;;19.48;2.63;;;5.50;99.90;;;;;;5072509;28;20496;-52
2023/01/14 03:10:16;;;;;;;12.60;3.25;;;5.50;99.90;;;;;;5074701;28;20120;-48
2023/01/14 03:12:46;;;;;;;13.27;2.20;;;5.40;99.90;;;;;;5034665;28;20034;-50
2023/01/14 03:15:26;;;;;;;13.57;2.30;;;5.40;99.90;;;;;;5063735;28;20055;-50
2023/01/14 03:18:05;;;;;;;20.92;2.45;;;5.40;99.90;;;;;;5073979;28;20480;-50
2023/01/14 03:20:34;;;;;;;16.90;2.47;;;5.30;99.90;;;;;;5070728;28;20045;-47
2023/01/14 03:23:05;;;;;;;23.35;3.47;;;5.40;99.90;;;;;;5078932;28;20158;-47
2023/01/14 03:25:35;;;;;;;15.18;2.42;;;5.50;99.90;;;;;;5068696;28;20123;-47
2023/01/14 03:28:02;;;;;;;16.60;2.70;;;5.70;99.90;;;;;;5082632;28;20384;-50
2023/01/14 03:30:35;;;;;;;18.05;2.22;;;5.50;99.90;;;;;;5070532;28;20154;-49
2023/01/14 03:33:10;;;;;;;18.40;2.35;;;5.50;99.90;;;;;;5078202;28;20139;-50
2023/01/14 03:35:42;;;;;;;15.02;2.70;;;5.50;99.90;;;;;;5076169;28;20372;-51
2023/01/14 03:38:16;;;;;;;17.63;2.25;;;5.40;99.90;;;;;;5052155;28;20076;-51
2023/01/14 03:40:44;;;;;;;17.42;2.85;;;5.40;99.90;;;;;;5070361;28;20149;-49
2023/01/14 03:43:18;;;;;;;20.55;2.92;;;5.40;99.90;;;;;;5070219;28;20119;-50
2023/01/14 03:45:45;;;;;;;15.77;2.20;;;5.40;99.90;;;;;;5069509;28;20040;-51
2023/01/14 03:48:11;;;;;;;15.68;2.58;;;5.30;99.90;;;;;;5080624;28;20032;-51
2023/01/14 03:51:06;;;;;;;19.75;2.22;;;5.30;99.90;;;;;;5072267;28;20060;-50
2023/01/14 03:53:34;;;;;;;12.98;2.72;;;5.20;99.90;;;;;;5066660;28;20045;-50
2023/01/14 03:56:48;;;;;;;24.85;3.40;;;5.20;99.90;;;;;;5080186;28;20040;-50
2023/01/14 03:59:20;;;;;;;18.00;2.58;;;5.20;99.90;;;;;;5045860;28;20049;-46
2023/01/14 04:01:52;;;;;;;20.17;2.83;;;5.40;99.90;;;;;;5068019;28;20099;-50
2023/01/14 04:04:19;;;;;;;12.27;2.53;;;5.10;99.90;;;;;;5069993;28;20391;-49
2023/01/14 04:06:45;;;;;;;16.52;2.78;;;5.20;99.90;;;;;;5072819;28;20082;-47
2023/01/14 04:09:10;;;;;;;21.00;2.67;;;5.10;99.90;;;;;;5080444;28;20412;-51
2023/01/14 04:11:36;;;;;;;15.48;2.85;;;5.20;99.90;;;;;;5081433;28;20036;-51
2023/01/14 04:16:48;;;;;;;17.67;2.63;;;5.30;99.90;;;;;;5069639;28;20384;-50
2023/01/14 04:19:14;;;;;;;15.25;3.15;;;5.80;99.90;;;;;;5070117;28;20044;-47
2023/01/14 04:21:40;;;;;;;19.58;2.72;;;5.50;99.90;;;;;;5069849;28;20037;-50
2023/01/14 04:24:06;;;;;;;16.92;2.85;;;5.50;99.90;;;;;;5070754;28;20575;-50
2023/01/14 04:26:32;;;;;;;18.33;2.97;;;5.40;99.90;;;;;;5073830;28;20029;-50
2023/01/14 04:28:58;;;;;;;19.80;3.60;;;5.50;99.90;;;;;;5074033;28;20041;-51
2023/01/14 04:31:23;;;;;;;19.95;2.58;;;5.40;99.90;;;;;;5073492;28;20036;-47
2023/01/14 04:33:49;;;;;;;17.08;2.60;;;5.50;99.90;;;;;;5084275;28;20028;-49
2023/01/14 04:36:15;;;;;;;18.65;3.17;;;5.80;99.90;;;;;;5074623;28;20598;-50
2023/01/14 04:38:41;;;;;;;20.90;3.10;;;5.50;99.90;;;;;;5073612;28;20044;-47
2023/01/14 04:42:25;;;;;;;24.77;3.42;;;5.50;99.90;;;;;;5073783;28;20093;-48
2023/01/14 04:43:52;;;;;;;22.88;3.33;;;5.40;99.90;;;;;;5073631;28;20056;-51
2023/01/14 04:46:18;;;;;;;19.95;3.20;;;5.50;99.90;;;;;;5072435;28;20105;-48
2023/01/14 04:48:43;;;;;;;19.48;3.55;;;5.40;99.90;;;;;;5080950;28;20040;-49
2023/01/14 04:51:09;;;;;;;26.48;3.13;;;5.40;99.90;;;;;;5073251;28;20039;-46
2023/01/14 04:53:35;;;;;;;24.40;3.42;;;5.50;99.90;;;;;;5073486;28;20105;-48
2023/01/14 04:56:00;;;;;;;18.67;3.53;;;5.70;99.90;;;;;;5073434;28;20125;-47
2023/01/14 04:58:26;;;;;;;21.77;3.47;;;5.40;99.90;;;;;;5072077;28;20398;-48
2023/01/14 05:00:52;;;;;;;19.30;3.72;;;5.40;99.90;;;;;;5073313;28;20036;-49
2023/01/14 05:03:18;;;;;;;21.50;3.70;;;5.40;99.90;;;;;;5082946;28;20036;-48
2023/01/14 05:05:45;;;;;;;18.90;3.20;;;5.70;99.90;;;;;;5072850;28;20090;-47
2023/01/14 05:08:12;;;;;;;19.65;3.70;;;5.30;99.90;;;;;;5074023;28;20529;-50
2023/01/14 05:10:38;;;;;;;19.80;3.30;;;5.40;99.90;;;;;;5081588;28;20409;-49
2023/01/14 05:13:07;;;;;;;25.95;4.43;;;5.30;99.90;;;;;;5085807;28;20158;-50
2023/01/14 05:15:40;;;;;;;22.38;3.15;;;5.40;99.90;;;;;;5080579;28;20040;-50
2023/01/14 05:18:07;;;;;;;22.75;3.85;;;5.50;99.90;;;;;;5071897;28;20059;-50
2023/01/14 05:20:33;;;;;;;23.30;4.13;;;5.50;99.90;;;;;;5072821;28;20055;-50
2023/01/14 05:23:01;;;;;;;23.05;4.15;;;5.50;99.90;;;;;;5073394;28;20093;-50
2023/01/14 05:25:28;;;;;;;20.88;4.15;;;5.30;99.90;;;;;;5074330;28;20048;-50
2023/01/14 05:28:01;;;;;;;21.55;4.38;;;5.50;99.90;;;;;;5085840;28;20441;-53
2023/01/14 05:30:27;;;;;;;19.80;4.50;;;5.40;99.90;;;;;;5072383;28;20040;-49
2023/01/14 05:32:53;;;;;;;25.20;4.68;;;5.40;99.90;;;;;;5077831;28;20036;-49
2023/01/14 05:35:19;;;;;;;23.25;4.45;;;5.30;99.90;;;;;;5075961;28;20039;-49
2023/01/14 05:37:44;;;;;;;22.30;4.32;;;5.40;99.90;;;;;;5072285;28;20044;-50
2023/01/14 05:40:10;;;;;;;22.23;5.20;;;5.40;99.90;;;;;;5072667;28;20106;-51
2023/01/14 05:45:48;;;;;;;19.70;4.85;;;5.50;99.90;;;;;;5070934;28;20053;-48
2023/01/14 05:48:18;;;;;;;29.77;6.03;;;5.40;99.90;;;;;;5081418;28;20476;-49
2023/01/14 05:50:44;;;;;;;32.35;5.88;;;5.40;99.90;;;;;;5071793;28;20388;-50
2023/01/14 05:53:10;;;;;;;32.05;6.20;;;5.50;99.90;;;;;;5071194;28;20035;-49
2023/01/14 05:55:36;;;;;;;29.45;6.20;;;5.30;99.90;;;;;;5072486;28;20036;-47
2023/01/14 05:58:04;;;;;;;36.10;6.78;;;5.30;99.90;;;;;;5070664;28;20044;-50
2023/01/14 06:06:22;;;;;;;29.67;6.63;;;5.50;99.90;;;;;;5071310;28;20044;-47
2023/01/14 06:08:53;;;;;;;30.15;6.00;;;5.60;99.90;;;;;;5079791;28;20032;-51
2023/01/14 06:11:20;;;;;;;30.98;5.68;;;5.40;99.90;;;;;;5073719;28;20039;-49
2023/01/14 06:13:51;;;;;;;33.92;7.32;;;5.60;99.90;;;;;;5071675;28;20395;-50
2023/01/14 06:16:18;;;;;;;34.65;5.80;;;5.50;99.90;;;;;;5078935;28;20064;-50
2023/01/14 06:18:44;;;;;;;33.78;6.35;;;5.80;99.90;;;;;;5074951;28;20090;-49
2023/01/14 06:21:16;;;;;;;33.75;5.32;;;5.40;99.90;;;;;;5075720;28;20497;-51
2023/01/14 06:23:42;;;;;;;35.28;5.97;;;5.50;99.90;;;;;;5075112;28;20063;-48
2023/01/14 06:26:10;;;;;;;26.33;5.63;;;5.80;99.90;;;;;;5084078;28;20024;-47
2023/01/14 06:28:35;;;;;;;31.90;4.78;;;5.60;99.90;;;;;;5071325;28;20082;-45
2023/01/14 06:31:01;;;;;;;28.42;5.57;;;5.60;99.90;;;;;;5072859;28;20083;-49
2023/01/14 06:33:27;;;;;;;36.08;5.32;;;5.90;99.90;;;;;;5081639;28;20043;-51
2023/01/14 06:35:55;;;;;;;32.85;5.90;;;5.50;99.90;;;;;;5074664;28;20044;-50
2023/01/14 06:38:21;;;;;;;40.50;5.13;;;5.40;99.90;;;;;;5071614;28;20063;-50
2023/01/14 06:40:46;;;;;;;29.45;4.80;;;5.60;99.90;;;;;;5072605;28;20575;-48
2023/01/14 06:43:12;;;;;;;32.38;5.82;;;5.60;99.90;;;;;;5081146;28;20033;-50
2023/01/14 06:45:38;;;;;;;33.53;5.82;;;5.80;99.90;;;;;;5070709;28;20044;-48
2023/01/14 06:48:04;;;;;;;23.35;5.47;;;5.50;99.90;;;;;;5070463;28;20074;-50
2023/01/14 06:50:29;;;;;;;41.10;6.07;;;5.70;99.90;;;;;;5071357;28;20029;-48
2023/01/14 06:53:00;;;;;;;27.88;5.45;;;5.40;99.90;;;;;;5071196;28;20036;-52
2023/01/14 06:55:26;;;;;;;25.75;5.85;;;6.00;99.90;;;;;;5071202;28;20553;-50
2023/01/14 06:57:51;;;;;;;40.15;6.40;;;5.80;99.90;;;;;;5071153;28;20040;-49
2023/01/14 07:00:17;;;;;;;33.30;6.35;;;5.70;99.90;;;;;;5070957;28;20036;-48
2023/01/14 07:02:43;;;;;;;36.00;7.35;;;5.70;99.90;;;;;;5071151;28;20072;-49
2023/01/14 07:05:09;;;;;;;29.88;5.82;;;5.60;99.90;;;;;;5070935;28;20064;-51
2023/01/14 07:07:35;;;;;;;30.52;7.15;;;5.50;99.90;;;;;;5069451;28;20082;-49
2023/01/14 07:10:00;;;;;;;36.83;6.43;;;5.80;99.90;;;;;;5070182;28;20040;-50
2023/01/14 07:12:26;;;;;;;29.85;5.57;;;5.50;99.90;;;;;;5070769;28;20047;-49
2023/01/14 07:14:55;;;;;;;29.33;5.53;;;5.80;99.90;;;;;;5072927;28;20024;-49
2023/01/14 07:17:20;;;;;;;31.80;5.57;;;5.60;99.90;;;;;;5073398;28;20116;-50
2023/01/14 07:19:46;;;;;;;35.33;6.15;;;5.70;99.90;;;;;;5070257;28;20111;-46
2023/01/14 07:22:11;;;;;;;30.80;6.20;;;5.60;99.90;;;;;;5070396;28;20048;-50
2023/01/14 07:24:37;;;;;;;24.08;5.38;;;5.80;99.90;;;;;;5078361;28;20040;-47
2023/01/14 07:27:04;;;;;;;26.05;4.88;;;5.80;99.90;;;;;;5081436;28;20365;-50
2023/01/14 07:29:30;;;;;;;24.55;5.00;;;5.90;99.90;;;;;;5072659;28;20099;-48
2023/01/14 07:31:56;;;;;;;30.40;5.65;;;5.90;99.90;;;;;;5071194;28;20068;-53
2023/01/14 07:34:22;;;;;;;32.45;4.97;;;5.90;99.90;;;;;;5071018;28;20036;-48
2023/01/14 07:36:47;;;;;;;25.80;4.93;;;5.90;99.90;;;;;;5082004;28;20130;-50
2023/01/14 07:39:13;;;;;;;18.80;5.38;;;5.80;99.90;;;;;;5072585;28;20067;-49
2023/01/14 07:41:39;;;;;;;28.50;5.43;;;6.00;99.90;;;;;;5068912;28;20047;-50
2023/01/14 07:44:05;;;;;;;24.55;5.03;;;5.90;99.90;;;;;;5067954;28;20185;-52
2023/01/14 07:46:32;;;;;;;31.50;4.80;;;5.90;99.90;;;;;;5068343;28;20041;-48
2023/01/14 07:48:58;;;;;;;23.40;4.63;;;5.80;99.90;;;;;;5076442;28;20482;-52
2023/01/14 07:51:24;;;;;;;26.00;5.35;;;5.80;99.90;;;;;;5070296;28;20036;-48
2023/01/14 07:53:50;;;;;;;24.63;4.50;;;5.80;99.90;;;;;;5070296;28;20040;-50
2023/01/14 07:56:16;;;;;;;26.02;4.43;;;5.70;99.90;;;;;;5070091;28;20037;-49
2023/01/14 07:58:41;;;;;;;32.22;5.03;;;5.70;99.90;;;;;;5053259;28;20097;-53
2023/01/14 08:01:09;;;;;;;22.85;4.90;;;5.80;99.90;;;;;;5053232;28;20040;-47
2023/01/14 08:03:36;;;;;;;24.52;4.78;;;5.80;99.90;;;;;;5050049;28;20037;-52
2023/01/14 08:06:04;;;;;;;29.30;4.05;;;5.90;99.90;;;;;;5049333;28;20040;-49
2023/01/14 08:08:30;;;;;;;31.67;4.45;;;5.70;99.90;;;;;;5050607;28;20047;-52
2023/01/14 08:10:59;;;;;;;26.83;4.30;;;5.80;99.90;;;;;;5050568;28;20040;-49
2023/01/14 08:13:27;;;;;;;30.48;4.95;;;6.00;99.90;;;;;;5055965;28;20468;-50
2023/01/14 08:15:57;;;;;;;34.17;5.47;;;5.70;99.90;;;;;;5056894;28;20044;-48
2023/01/14 08:18:24;;;;;;;25.40;4.13;;;6.00;99.90;;;;;;5058940;28;20064;-51
2023/01/14 08:21:03;;;;;;;26.80;4.95;;;6.00;99.90;;;;;;5060224;28;20111;-49
2023/01/14 08:23:29;;;;;;;27.35;4.63;;;5.70;99.90;;;;;;5059786;28;20033;-48
2023/01/14 08:26:02;;;;;;;27.42;4.30;;;5.70;99.90;;;;;;5059120;28;20045;-49
2023/01/14 08:28:28;;;;;;;27.10;3.88;;;6.10;99.90;;;;;;5057424;28;20876;-48
2023/01/14 08:31:07;;;;;;;21.85;3.95;;;6.00;99.90;;;;;;5059152;28;20090;-49
2023/01/14 08:33:34;;;;;;;24.50;4.03;;;5.90;99.90;;;;;;5058318;28;20126;-49
2023/01/14 08:36:06;;;;;;;21.92;3.72;;;5.90;99.90;;;;;;5059396;28;20032;-51
2023/01/14 08:38:33;;;;;;;20.13;3.78;;;6.00;99.90;;;;;;5057284;28;20036;-50
2023/01/14 08:41:01;;;;;;;25.67;4.40;;;5.70;99.90;;;;;;5059589;28;20488;-50
2023/01/14 08:43:27;;;;;;;28.38;4.53;;;6.10;99.90;;;;;;5056786;28;20404;-49
2023/01/14 08:45:53;;;;;;;23.63;3.42;;;5.80;99.90;;;;;;5057170;28;20048;-46
2023/01/14 08:48:18;;;;;;;18.50;3.58;;;5.90;99.90;;;;;;5058155;28;20033;-47
2023/01/14 08:50:44;;;;;;;31.35;4.43;;;6.20;99.90;;;;;;5059725;28;20033;-49
2023/01/14 08:53:10;;;;;;;25.33;4.82;;;6.10;99.90;;;;;;5058128;28;20095;-46
2023/01/14 08:55:35;;;;;;;27.58;4.43;;;6.10;99.90;;;;;;5060312;28;20033;-48
2023/01/14 08:58:05;;;;;;;18.98;4.03;;;6.10;99.90;;;;;;5060164;28;20169;-49
2023/01/14 09:00:31;;;;;;;23.73;4.15;;;6.20;99.90;;;;;;5060429;28;20033;-49
2023/01/14 09:02:56;;;;;;;27.02;4.28;;;5.90;99.90;;;;;;5058355;28;20451;-48
2023/01/14 09:05:22;;;;;;;19.45;4.85;;;6.20;99.90;;;;;;5057866;28;20032;-45
2023/01/14 09:18:46;;;;;;;20.95;4.60;;;6.20;99.90;;;;;;5061979;28;20503;-47
2023/01/14 09:21:12;;;;;;;17.50;3.67;;;5.90;99.90;;;;;;5061406;28;20040;-50
2023/01/14 09:23:37;;;;;;;27.13;4.25;;;6.40;99.90;;;;;;5061997;28;20087;-49
2023/01/14 09:26:03;;;;;;;15.90;3.78;;;6.20;99.90;;;;;;5063780;28;20054;-47
2023/01/14 09:28:29;;;;;;;12.55;3.53;;;6.10;99.90;;;;;;5062972;28;20124;-49
2023/01/14 09:30:54;;;;;;;16.67;3.95;;;6.50;99.90;;;;;;5059762;28;20480;-48
2023/01/14 09:33:20;;;;;;;18.38;4.55;;;6.50;99.90;;;;;;5060190;28;20042;-47
2023/01/14 09:35:46;;;;;;;15.23;4.18;;;6.30;99.90;;;;;;5061375;28;20040;-48
2023/01/14 09:38:11;;;;;;;22.30;4.53;;;6.40;99.90;;;;;;5060660;28;20098;-51
2023/01/14 09:40:39;;;;;;;12.40;3.92;;;6.70;99.90;;;;;;5060949;28;20102;-50
2023/01/14 09:43:05;;;;;;;17.80;4.43;;;6.40;99.90;;;;;;5060599;28;20522;-49
2023/01/14 09:45:33;;;;;;;12.88;3.80;;;6.30;99.90;;;;;;5060231;28;20136;-47
2023/01/14 09:48:13;;;;;;;12.90;4.00;;;6.20;99.90;;;;;;5059671;28;20039;-49
2023/01/14 09:50:39;;;;;;;16.02;4.18;;;6.80;99.90;;;;;;5059006;28;20491;-48
2023/01/14 09:53:17;;;;;;;12.13;4.13;;;6.70;99.90;;;;;;5062139;28;20025;-49
2023/01/14 09:56:04;;;;;;;15.63;3.95;;;6.30;99.90;;;;;;5062324;28;20055;-49
2023/01/14 09:58:49;;;;;;;11.57;3.72;;;6.40;99.90;;;;;;5061149;28;20040;-50
2023/01/14 10:01:15;;;;;;;11.13;3.75;;;6.80;99.90;;;;;;5060164;28;20042;-46
2023/01/14 10:04:04;;;;;;;16.30;4.22;;;6.70;99.90;;;;;;5060945;28;20408;-50
2023/01/14 10:06:30;;;;;;;11.50;3.70;;;6.40;99.90;;;;;;5062193;28;20032;-48
2023/01/14 10:09:03;;;;;;;18.65;4.68;;;6.50;99.90;;;;;;5059939;28;20044;-48
2023/01/14 10:11:35;;;;;;;9.20;4.00;;;6.90;99.90;;;;;;5058729;28;20041;-47
2023/01/14 10:14:18;;;;;;;11.32;3.45;;;7.00;99.90;;;;;;5060851;28;20115;-51
2023/01/14 10:16:47;;;;;;;11.73;4.40;;;6.00;99.90;;;;;;5059378;28;20044;-47
2023/01/14 10:19:28;;;;;;;7.68;3.00;;;6.90;99.90;;;;;;5060459;28;20036;-47
2023/01/14 10:22:06;;;;;;;9.55;3.50;;;6.60;99.90;;;;;;5059847;28;20135;-48
2023/01/14 10:24:32;;;;;;;10.52;3.88;;;6.50;99.90;;;;;;5062047;28;20048;-49
2023/01/14 10:26:58;;;;;;;13.07;3.95;;;6.60;99.90;;;;;;5059865;28;20040;-49
2023/01/14 10:29:26;;;;;;;8.90;3.47;;;6.80;99.90;;;;;;5066040;28;20043;-51
2023/01/14 10:32:00;;;;;;;13.57;4.18;;;6.60;99.90;;;;;;5066532;28;20320;-51
2023/01/14 10:34:33;;;;;;;;;;;7.20;99.90;;;;;;5067511;28;20040;-50
2023/01/14 10:36:59;;;;;;;12.57;3.92;;;6.50;99.90;;;;;;5070695;28;20039;-52
2023/01/14 10:39:25;;;;;;;9.75;3.85;;;7.10;99.90;;;;;;5071089;28;20040;-49
2023/01/14 10:41:51;;;;;;;11.30;4.38;;;7.10;99.90;;;;;;5070961;28;20025;-49
2023/01/14 10:44:28;;;;;;;12.40;4.25;;;7.20;99.90;;;;;;5069118;28;20057;-47
2023/01/14 10:47:01;;;;;;;12.98;3.88;;;6.60;99.90;;;;;;5071167;28;20439;-51
2023/01/14 10:49:49;;;;;;;11.13;3.97;;;6.80;99.90;;;;;;5069881;28;20037;-49
2023/01/14 10:52:28;;;;;;;7.88;3.45;;;6.80;99.90;;;;;;5072916;28;20029;-47
2023/01/14 10:54:58;;;;;;;11.63;4.15;;;6.80;99.90;;;;;;5070874;28;20040;-48
2023/01/14 10:57:25;;;;;;;10.65;4.43;;;7.20;99.90;;;;;;5071150;28;20044;-49
2023/01/14 10:59:54;;;;;;;12.85;3.90;;;7.10;99.90;;;;;;5070481;28;20036;-51
2023/01/14 11:02:21;;;;;;;8.77;3.80;;;6.90;99.90;;;;;;5070340;28;20048;-46
2023/01/14 11:04:48;;;;;;;7.68;3.38;;;6.90;99.90;;;;;;5070539;28;20079;-51
2023/01/14 11:07:29;;;;;;;12.10;3.53;;;7.20;99.90;;;;;;5070949;28;20040;-47
2023/01/14 11:09:58;;;;;;;8.90;3.20;;;7.50;99.90;;;;;;5068821;28;20132;-49
2023/01/14 11:12:29;;;;;;;11.45;3.90;;;7.50;99.90;;;;;;5069372;28;20032;-48
2023/01/14 11:14:55;;;;;;;10.70;3.53;;;6.80;99.90;;;;;;5069714;28;20438;-52
2023/01/14 11:17:29;;;;;;;8.88;3.25;;;6.90;99.90;;;;;;5067464;28;20136;-52
2023/01/14 11:20:24;;;;;;;10.32;3.78;;;7.40;99.90;;;;;;5069829;28;20075;-48
2023/01/14 11:22:54;;;;;;;;;;;7.00;99.90;;;;;;5070339;28;20079;-46
2023/01/14 11:25:22;;;;;;;7.82;3.28;;;7.60;99.90;;;;;;5070259;28;19999;-48
2023/01/14 11:27:50;;;;;;;9.73;3.20;;;7.40;99.90;;;;;;5070581;28;20407;-46
2023/01/14 11:30:21;;;;;;;10.35;3.67;;;7.00;99.90;;;;;;5070302;28;20044;-47
2023/01/14 11:32:49;;;;;;;11.23;3.83;;;7.00;99.90;;;;;;5068895;28;20029;-48
2023/01/14 11:35:26;;;;;;;10.60;3.13;;;7.60;99.90;;;;;;5069297;28;20041;-52
2023/01/14 11:37:53;;;;;;;12.98;3.60;;;7.00;99.90;;;;;;5068618;28;20094;-49
2023/01/14 11:43:22;;;;;;;8.80;2.95;;;7.30;99.90;;;;;;5077532;28;20488;-48
2023/01/14 11:46:12;;;;;;;8.35;3.10;;;7.70;99.90;;;;;;5070465;28;20056;-46
2023/01/14 11:48:40;;;;;;;6.32;2.63;;;7.70;99.90;;;;;;5072229;28;20484;-51
2023/01/14 11:51:20;;;;;;;6.72;2.58;;;7.30;99.90;;;;;;5074821;28;20032;-49
2023/01/14 11:53:52;;;;;;;9.27;2.70;;;7.90;99.90;;;;;;5079447;28;21407;-50
2023/01/14 11:56:23;;;;;;;7.93;2.90;;;7.70;99.90;;;;;;5068341;28;20076;-46
2023/01/14 11:58:49;;;;;;;7.72;2.92;;;7.40;99.90;;;;;;5081235;28;20070;-48
2023/01/14 12:01:27;;;;;;;5.28;2.63;;;7.80;99.90;;;;;;5069347;28;20032;-46
2023/01/14 12:03:56;;;;;;;6.00;2.67;;;7.80;99.90;;;;;;5072328;28;20040;-45
2023/01/14 12:06:26;;;;;;;8.23;2.47;;;8.10;99.90;;;;;;5070903;28;20127;-47
2023/01/14 12:08:56;;;;;;;6.53;2.63;;;7.50;99.90;;;;;;5069549;28;20041;-49
2023/01/14 12:11:49;;;;;;;6.13;2.40;;;8.10;99.90;;;;;;5071621;28;20444;-49
2023/01/14 12:17:20;;;;;;;7.75;2.90;;;8.10;99.90;;;;;;5065295;28;20139;-47
2023/01/14 12:19:58;;;;;;;6.47;2.63;;;8.20;99.90;;;;;;5065854;28;20048;-47
2023/01/14 12:22:48;;;;;;;7.07;2.38;;;8.10;99.90;;;;;;5067293;28;20044;-47
2023/01/14 12:25:23;;;;;;;7.30;2.70;;;8.30;99.90;;;;;;5068702;28;20036;-48
2023/01/14 12:28:29;;;;;;;6.30;2.28;;;8.20;99.90;;;;;;5067254;28;20536;-50
2023/01/14 12:31:05;;;;;;;5.97;1.90;;;8.30;99.90;;;;;;5067893;28;20431;-49
2023/01/14 12:33:46;;;;;;;4.95;1.90;;;8.00;99.90;;;;;;5068971;28;20078;-52
2023/01/14 12:36:19;;;;;;;6.50;2.50;;;8.00;99.90;;;;;;5067485;28;20055;-47
2023/01/14 12:47:31;;;;;;;6.20;1.40;;;8.70;99.90;;;;;;5077112;28;20059;-47
2023/01/14 12:49:57;;;;;;;5.53;1.63;;;8.70;99.90;;;;;;5080305;28;20430;-49
2023/01/14 12:52:27;;;;;;;4.32;1.30;;;8.80;99.90;;;;;;5076132;28;20123;-48
2023/01/14 12:54:56;;;;;;;3.85;1.10;;;8.80;99.90;;;;;;5071788;28;20106;-50
2023/01/14 12:57:24;;;;;;;2.42;1.10;;;8.90;99.90;;;;;;5074556;28;20036;-50
2023/01/14 13:00:07;;;;;;;4.38;1.30;;;8.40;99.90;;;;;;5071817;28;20123;-51
2023/01/14 13:02:40;;;;;;;2.80;1.30;;;8.60;99.90;;;;;;5072196;28;20495;-47
2023/01/14 13:05:13;;;;;;;4.80;1.20;;;8.60;99.90;;;;;;5072231;28;20048;-49
2023/01/14 13:07:55;;;;;;;2.28;0.90;;;9.00;99.90;;;;;;5072064;28;20048;-47
2023/01/14 13:10:29;;;;;;;2.83;1.05;;;8.70;99.90;;;;;;5072118;28;20032;-52
2023/01/14 13:12:55;;;;;;;2.97;1.10;;;8.70;99.90;;;;;;5073002;28;20032;-47
2023/01/14 13:15:26;;;;;;;2.60;1.25;;;8.70;99.90;;;;;;5072935;28;20426;-51
2023/01/14 13:18:00;;;;;;;4.13;1.20;;;8.80;99.90;;;;;;5073888;28;20122;-48
2023/01/14 13:20:28;;;;;;;;;;;8.90;99.90;;;;;;5079364;28;20070;-47
2023/01/14 13:23:01;;;;;;;2.58;0.90;;;9.30;99.90;;;;;;5072989;28;19916;-50
2023/01/14 13:25:37;;;;;;;4.38;1.05;;;9.30;99.90;;;;;;5071534;28;20036;-48
2023/01/14 13:28:11;;;;;;;2.67;0.75;;;9.00;99.90;;;;;;5072913;28;20040;-47
2023/01/14 13:30:43;;;;;;;3.85;1.10;;;9.40;99.90;;;;;;5081371;28;20387;-52
2023/01/14 13:33:20;;;;;;;1.90;0.90;;;9.40;99.90;;;;;;5073377;28;20045;-47
2023/01/14 13:36:13;;;;;;;2.60;0.90;;;9.30;99.90;;;;;;5076608;28;20422;-48
2023/01/14 13:38:46;;;;;;;3.55;1.00;;;9.50;99.90;;;;;;5081503;28;20037;-48
2023/01/14 13:41:38;;;;;;;3.25;0.90;;;9.50;99.90;;;;;;5076741;28;20033;-49
2023/01/14 13:44:05;;;;;;;1.80;0.98;;;9.20;99.90;;;;;;5076331;28;20038;-51
2023/01/14 13:46:34;;;;;;;1.52;0.73;;;9.50;99.90;;;;;;5072046;28;20033;-46
2023/01/14 13:49:04;;;;;;;2.65;1.00;;;9.60;99.90;;;;;;5074203;28;20476;-50